sensor_id;sensor_type;location;lat;lon;timestamp;P1;durP1;ratioP1;P2;durP2;ratioP2
70487;SDS011;57976;48.174;16.370;2023-07-29T00:01:29;5.20;;;2.00;;
70487;SDS011;57976;48.174;16.370;2023-07-29T00:03:34;6.00;;;2.10;;
70487;SDS011;57976;48.174;16.370;2023-07-29T00:05:42;4.80;;;2.10;;
70487;SDS011;57976;48.174;16.370;2023-07-29T00:07:51;5.90;;;2.40;;
70487;SDS011;57976;48.174;16.370;2023-07-29T00:09:57;6.00;;;2.40;;
70487;SDS011;57976;48.174;16.370;2023-07-29T00:12:03;5.30;;;2.50;;
70487;SDS011;57976;48.174;16.370;2023-07-29T00:14:09;5.20;;;2.50;;
70487;SDS011;57976;48.174;16.370;2023-07-29T00:16:14;5.40;;;2.50;;
70487;SDS011;57976;48.174;16.370;2023-07-29T00:18:20;5.70;;;2.20;;
70487;SDS011;57976;48.174;16.370;2023-07-29T00:20:28;4.90;;;1.90;;
70487;SDS011;57976;48.174;16.370;2023-07-29T00:22:33;5.10;;;2.10;;
70487;SDS011;57976;48.174;16.370;2023-07-29T00:24:39;5.20;;;2.50;;
70487;SDS011;57976;48.174;16.370;2023-07-29T00:26:44;5.10;;;2.00;;
70487;SDS011;57976;48.174;16.370;2023-07-29T00:28:49;5.30;;;2.10;;
70487;SDS011;57976;48.174;16.370;2023-07-29T00:30:57;5.50;;;2.40;;
70487;SDS011;57976;48.174;16.370;2023-07-29T00:33:02;5.90;;;2.20;;
70487;SDS011;57976;48.174;16.370;2023-07-29T00:35:09;5.50;;;2.20;;
70487;SDS011;57976;48.174;16.370;2023-07-29T00:37:19;5.30;;;2.30;;
70487;SDS011;57976;48.174;16.370;2023-07-29T00:39:23;5.40;;;2.30;;
70487;SDS011;57976;48.174;16.370;2023-07-29T00:41:28;6.30;;;2.30;;
70487;SDS011;57976;48.174;16.370;2023-07-29T00:43:35;5.40;;;2.30;;
70487;SDS011;57976;48.174;16.370;2023-07-29T00:45:40;7.30;;;3.50;;
70487;SDS011;57976;48.174;16.370;2023-07-29T00:47:48;5.50;;;2.50;;
70487;SDS011;57976;48.174;16.370;2023-07-29T00:49:53;6.00;;;2.30;;
70487;SDS011;57976;48.174;16.370;2023-07-29T00:51:59;5.70;;;2.30;;
70487;SDS011;57976;48.174;16.370;2023-07-29T00:54:04;6.40;;;2.40;;
70487;SDS011;57976;48.174;16.370;2023-07-29T00:56:10;5.30;;;2.30;;
70487;SDS011;57976;48.174;16.370;2023-07-29T00:58:18;5.90;;;2.20;;
70487;SDS011;57976;48.174;16.370;2023-07-29T01:00:23;5.00;;;2.10;;
70487;SDS011;57976;48.174;16.370;2023-07-29T01:02:29;6.00;;;2.20;;
70487;SDS011;57976;48.174;16.370;2023-07-29T01:04:35;5.80;;;2.30;;
70487;SDS011;57976;48.174;16.370;2023-07-29T01:06:44;5.60;;;2.50;;
70487;SDS011;57976;48.174;16.370;2023-07-29T01:08:55;6.30;;;2.30;;
70487;SDS011;57976;48.174;16.370;2023-07-29T01:11:11;5.10;;;2.30;;
70487;SDS011;57976;48.174;16.370;2023-07-29T01:13:33;6.10;;;2.30;;
70487;SDS011;57976;48.174;16.370;2023-07-29T01:15:48;4.90;;;2.20;;
70487;SDS011;57976;48.174;16.370;2023-07-29T01:18:04;5.20;;;2.20;;
70487;SDS011;57976;48.174;16.370;2023-07-29T01:20:15;5.60;;;2.60;;
70487;SDS011;57976;48.174;16.370;2023-07-29T01:22:25;5.50;;;2.40;;
70487;SDS011;57976;48.174;16.370;2023-07-29T01:24:30;6.30;;;2.30;;
70487;SDS011;57976;48.174;16.370;2023-07-29T01:26:35;5.80;;;2.40;;
70487;SDS011;57976;48.174;16.370;2023-07-29T01:28:45;5.20;;;2.00;;
70487;SDS011;57976;48.174;16.370;2023-07-29T01:30:51;5.30;;;2.40;;
70487;SDS011;57976;48.174;16.370;2023-07-29T01:33:07;5.60;;;2.20;;
70487;SDS011;57976;48.174;16.370;2023-07-29T01:35:19;7.00;;;2.30;;
70487;SDS011;57976;48.174;16.370;2023-07-29T01:37:32;5.40;;;2.30;;
70487;SDS011;57976;48.174;16.370;2023-07-29T01:39:37;5.50;;;2.20;;
70487;SDS011;57976;48.174;16.370;2023-07-29T01:41:44;5.70;;;2.40;;
70487;SDS011;57976;48.174;16.370;2023-07-29T01:43:52;5.30;;;2.30;;
70487;SDS011;57976;48.174;16.370;2023-07-29T01:45:58;5.50;;;2.40;;
70487;SDS011;57976;48.174;16.370;2023-07-29T01:48:05;6.00;;;2.30;;
70487;SDS011;57976;48.174;16.370;2023-07-29T01:50:11;6.00;;;2.30;;
70487;SDS011;57976;48.174;16.370;2023-07-29T01:52:16;6.00;;;2.40;;
70487;SDS011;57976;48.174;16.370;2023-07-29T01:54:21;5.10;;;2.20;;
70487;SDS011;57976;48.174;16.370;2023-07-29T01:56:26;6.30;;;2.40;;
70487;SDS011;57976;48.174;16.370;2023-07-29T01:58:34;6.20;;;2.60;;
70487;SDS011;57976;48.174;16.370;2023-07-29T02:00:41;5.60;;;2.20;;
70487;SDS011;57976;48.174;16.370;2023-07-29T02:02:53;6.60;;;2.60;;
70487;SDS011;57976;48.174;16.370;2023-07-29T02:05:06;5.50;;;2.30;;
70487;SDS011;57976;48.174;16.370;2023-07-29T02:07:11;5.40;;;2.30;;
70487;SDS011;57976;48.174;16.370;2023-07-29T02:09:19;6.60;;;3.10;;
70487;SDS011;57976;48.174;16.370;2023-07-29T02:11:25;6.20;;;2.50;;
70487;SDS011;57976;48.174;16.370;2023-07-29T02:13:29;5.60;;;2.40;;
70487;SDS011;57976;48.174;16.370;2023-07-29T02:15:34;5.80;;;2.40;;
70487;SDS011;57976;48.174;16.370;2023-07-29T02:17:40;5.80;;;2.50;;
70487;SDS011;57976;48.174;16.370;2023-07-29T02:19:46;5.30;;;2.40;;
70487;SDS011;57976;48.174;16.370;2023-07-29T02:21:51;5.10;;;2.20;;
70487;SDS011;57976;48.174;16.370;2023-07-29T02:23:55;5.70;;;2.20;;
70487;SDS011;57976;48.174;16.370;2023-07-29T02:26:00;5.80;;;2.40;;
70487;SDS011;57976;48.174;16.370;2023-07-29T02:28:11;5.30;;;2.30;;
70487;SDS011;57976;48.174;16.370;2023-07-29T02:30:24;5.60;;;2.10;;
70487;SDS011;57976;48.174;16.370;2023-07-29T02:32:33;5.20;;;2.00;;
70487;SDS011;57976;48.174;16.370;2023-07-29T02:34:38;4.90;;;2.00;;
70487;SDS011;57976;48.174;16.370;2023-07-29T02:36:43;5.20;;;2.10;;
70487;SDS011;57976;48.174;16.370;2023-07-29T02:38:48;6.10;;;1.90;;
70487;SDS011;57976;48.174;16.370;2023-07-29T02:40:59;5.50;;;2.10;;
70487;SDS011;57976;48.174;16.370;2023-07-29T02:43:06;5.80;;;2.00;;
70487;SDS011;57976;48.174;16.370;2023-07-29T02:45:11;5.30;;;2.00;;
70487;SDS011;57976;48.174;16.370;2023-07-29T02:47:16;5.00;;;2.00;;
70487;SDS011;57976;48.174;16.370;2023-07-29T02:49:21;5.40;;;1.80;;
70487;SDS011;57976;48.174;16.370;2023-07-29T02:51:26;4.90;;;1.90;;
70487;SDS011;57976;48.174;16.370;2023-07-29T02:53:32;5.20;;;2.00;;
70487;SDS011;57976;48.174;16.370;2023-07-29T02:55:41;4.60;;;1.80;;
70487;SDS011;57976;48.174;16.370;2023-07-29T02:57:49;5.20;;;2.10;;
70487;SDS011;57976;48.174;16.370;2023-07-29T02:59:56;4.70;;;1.70;;
70487;SDS011;57976;48.174;16.370;2023-07-29T03:02:01;4.40;;;1.70;;
70487;SDS011;57976;48.174;16.370;2023-07-29T03:04:08;4.40;;;1.70;;
70487;SDS011;57976;48.174;16.370;2023-07-29T03:06:17;4.30;;;1.40;;
70487;SDS011;57976;48.174;16.370;2023-07-29T03:08:25;4.70;;;1.50;;
70487;SDS011;57976;48.174;16.370;2023-07-29T03:10:29;4.30;;;1.60;;
70487;SDS011;57976;48.174;16.370;2023-07-29T03:12:34;4.60;;;1.60;;
70487;SDS011;57976;48.174;16.370;2023-07-29T03:14:39;5.10;;;1.70;;
70487;SDS011;57976;48.174;16.370;2023-07-29T03:16:44;5.10;;;1.50;;
70487;SDS011;57976;48.174;16.370;2023-07-29T03:18:49;4.50;;;1.60;;
70487;SDS011;57976;48.174;16.370;2023-07-29T03:20:56;4.70;;;1.50;;
70487;SDS011;57976;48.174;16.370;2023-07-29T03:23:01;4.90;;;1.60;;
70487;SDS011;57976;48.174;16.370;2023-07-29T03:25:08;4.40;;;1.60;;
70487;SDS011;57976;48.174;16.370;2023-07-29T03:27:13;4.40;;;1.50;;
70487;SDS011;57976;48.174;16.370;2023-07-29T03:29:18;4.60;;;1.60;;
70487;SDS011;57976;48.174;16.370;2023-07-29T03:31:26;5.10;;;1.50;;
70487;SDS011;57976;48.174;16.370;2023-07-29T03:33:31;5.00;;;1.90;;
70487;SDS011;57976;48.174;16.370;2023-07-29T03:35:38;4.50;;;1.70;;
70487;SDS011;57976;48.174;16.370;2023-07-29T03:37:49;5.00;;;1.90;;
70487;SDS011;57976;48.174;16.370;2023-07-29T03:39:53;4.20;;;1.40;;
70487;SDS011;57976;48.174;16.370;2023-07-29T03:41:58;4.70;;;1.50;;
70487;SDS011;57976;48.174;16.370;2023-07-29T03:44:04;4.30;;;1.40;;
70487;SDS011;57976;48.174;16.370;2023-07-29T03:46:09;4.60;;;1.60;;
70487;SDS011;57976;48.174;16.370;2023-07-29T03:48:16;4.70;;;1.30;;
70487;SDS011;57976;48.174;16.370;2023-07-29T03:50:21;4.80;;;1.80;;
70487;SDS011;57976;48.174;16.370;2023-07-29T03:52:26;4.30;;;1.60;;
70487;SDS011;57976;48.174;16.370;2023-07-29T03:54:33;4.20;;;1.50;;
70487;SDS011;57976;48.174;16.370;2023-07-29T03:56:38;4.50;;;1.60;;
70487;SDS011;57976;48.174;16.370;2023-07-29T03:58:46;4.30;;;1.50;;
70487;SDS011;57976;48.174;16.370;2023-07-29T04:00:54;4.70;;;1.70;;
70487;SDS011;57976;48.174;16.370;2023-07-29T04:03:00;4.30;;;1.50;;
70487;SDS011;57976;48.174;16.370;2023-07-29T04:05:06;5.00;;;2.00;;
70487;SDS011;57976;48.174;16.370;2023-07-29T04:07:11;4.40;;;1.40;;
70487;SDS011;57976;48.174;16.370;2023-07-29T04:09:16;4.60;;;1.50;;
70487;SDS011;57976;48.174;16.370;2023-07-29T04:11:22;4.80;;;1.50;;
70487;SDS011;57976;48.174;16.370;2023-07-29T04:13:27;4.10;;;1.40;;
70487;SDS011;57976;48.174;16.370;2023-07-29T04:15:32;4.20;;;1.60;;
70487;SDS011;57976;48.174;16.370;2023-07-29T04:17:38;4.20;;;1.50;;
70487;SDS011;57976;48.174;16.370;2023-07-29T04:19:45;5.00;;;1.70;;
70487;SDS011;57976;48.174;16.370;2023-07-29T04:21:49;4.90;;;1.60;;
70487;SDS011;57976;48.174;16.370;2023-07-29T04:24:00;3.90;;;1.50;;
70487;SDS011;57976;48.174;16.370;2023-07-29T04:26:05;4.60;;;1.70;;
70487;SDS011;57976;48.174;16.370;2023-07-29T04:28:13;4.60;;;1.60;;
70487;SDS011;57976;48.174;16.370;2023-07-29T04:30:19;4.70;;;1.50;;
70487;SDS011;57976;48.174;16.370;2023-07-29T04:32:23;4.30;;;1.50;;
70487;SDS011;57976;48.174;16.370;2023-07-29T04:34:30;4.70;;;1.50;;
70487;SDS011;57976;48.174;16.370;2023-07-29T04:36:37;4.70;;;1.70;;
70487;SDS011;57976;48.174;16.370;2023-07-29T04:38:43;4.40;;;1.60;;
70487;SDS011;57976;48.174;16.370;2023-07-29T04:40:51;4.30;;;1.50;;
70487;SDS011;57976;48.174;16.370;2023-07-29T04:43:01;4.00;;;1.30;;
70487;SDS011;57976;48.174;16.370;2023-07-29T04:45:06;4.80;;;1.40;;
70487;SDS011;57976;48.174;16.370;2023-07-29T04:47:14;4.80;;;1.30;;
70487;SDS011;57976;48.174;16.370;2023-07-29T04:49:19;4.40;;;1.50;;
70487;SDS011;57976;48.174;16.370;2023-07-29T04:51:24;5.10;;;1.70;;
70487;SDS011;57976;48.174;16.370;2023-07-29T04:53:29;4.60;;;1.70;;
70487;SDS011;57976;48.174;16.370;2023-07-29T04:55:34;4.40;;;1.40;;
70487;SDS011;57976;48.174;16.370;2023-07-29T04:57:38;6.30;;;2.30;;
70487;SDS011;57976;48.174;16.370;2023-07-29T04:59:46;4.60;;;1.50;;
70487;SDS011;57976;48.174;16.370;2023-07-29T05:01:51;4.70;;;1.70;;
70487;SDS011;57976;48.174;16.370;2023-07-29T05:03:57;4.50;;;1.40;;
70487;SDS011;57976;48.174;16.370;2023-07-29T05:06:02;4.20;;;1.50;;
70487;SDS011;57976;48.174;16.370;2023-07-29T05:08:07;4.30;;;1.40;;
70487;SDS011;57976;48.174;16.370;2023-07-29T05:10:16;4.30;;;1.50;;
70487;SDS011;57976;48.174;16.370;2023-07-29T05:12:26;4.60;;;1.50;;
70487;SDS011;57976;48.174;16.370;2023-07-29T05:14:31;4.60;;;1.50;;
70487;SDS011;57976;48.174;16.370;2023-07-29T05:16:40;4.90;;;1.60;;
70487;SDS011;57976;48.174;16.370;2023-07-29T05:18:49;4.40;;;1.50;;
70487;SDS011;57976;48.174;16.370;2023-07-29T05:20:54;4.30;;;1.50;;
70487;SDS011;57976;48.174;16.370;2023-07-29T05:23:02;4.60;;;1.30;;
70487;SDS011;57976;48.174;16.370;2023-07-29T05:25:07;4.10;;;1.50;;
70487;SDS011;57976;48.174;16.370;2023-07-29T05:27:12;4.40;;;1.30;;
70487;SDS011;57976;48.174;16.370;2023-07-29T05:29:17;3.80;;;1.20;;
70487;SDS011;57976;48.174;16.370;2023-07-29T05:31:22;4.00;;;1.30;;
70487;SDS011;57976;48.174;16.370;2023-07-29T05:33:29;4.80;;;1.40;;
70487;SDS011;57976;48.174;16.370;2023-07-29T05:35:34;4.50;;;1.40;;
70487;SDS011;57976;48.174;16.370;2023-07-29T05:37:40;4.30;;;1.60;;
70487;SDS011;57976;48.174;16.370;2023-07-29T05:39:45;4.90;;;1.50;;
70487;SDS011;57976;48.174;16.370;2023-07-29T05:41:49;4.10;;;1.50;;
70487;SDS011;57976;48.174;16.370;2023-07-29T05:43:58;4.60;;;1.80;;
70487;SDS011;57976;48.174;16.370;2023-07-29T05:46:03;4.30;;;1.50;;
70487;SDS011;57976;48.174;16.370;2023-07-29T05:48:08;4.30;;;1.60;;
70487;SDS011;57976;48.174;16.370;2023-07-29T05:50:15;5.00;;;1.70;;
70487;SDS011;57976;48.174;16.370;2023-07-29T05:52:21;4.10;;;1.40;;
70487;SDS011;57976;48.174;16.370;2023-07-29T05:54:27;4.50;;;1.40;;
70487;SDS011;57976;48.174;16.370;2023-07-29T05:56:32;4.40;;;1.20;;
70487;SDS011;57976;48.174;16.370;2023-07-29T05:58:38;4.00;;;1.40;;
70487;SDS011;57976;48.174;16.370;2023-07-29T06:00:43;4.10;;;1.40;;
70487;SDS011;57976;48.174;16.370;2023-07-29T06:02:48;3.90;;;1.20;;
70487;SDS011;57976;48.174;16.370;2023-07-29T06:04:56;4.70;;;1.40;;
70487;SDS011;57976;48.174;16.370;2023-07-29T06:07:04;3.60;;;1.20;;
70487;SDS011;57976;48.174;16.370;2023-07-29T06:09:12;4.00;;;1.20;;
70487;SDS011;57976;48.174;16.370;2023-07-29T06:11:17;3.80;;;1.20;;
70487;SDS011;57976;48.174;16.370;2023-07-29T06:13:22;3.90;;;1.30;;
70487;SDS011;57976;48.174;16.370;2023-07-29T06:15:27;4.00;;;1.20;;
70487;SDS011;57976;48.174;16.370;2023-07-29T06:17:33;3.10;;;0.90;;
70487;SDS011;57976;48.174;16.370;2023-07-29T06:19:39;3.40;;;1.20;;
70487;SDS011;57976;48.174;16.370;2023-07-29T06:21:43;3.30;;;1.10;;
70487;SDS011;57976;48.174;16.370;2023-07-29T06:23:52;4.40;;;1.40;;
70487;SDS011;57976;48.174;16.370;2023-07-29T06:25:57;3.20;;;1.10;;
70487;SDS011;57976;48.174;16.370;2023-07-29T06:28:03;4.80;;;1.10;;
70487;SDS011;57976;48.174;16.370;2023-07-29T06:30:08;4.30;;;1.30;;
70487;SDS011;57976;48.174;16.370;2023-07-29T06:32:16;4.10;;;1.00;;
70487;SDS011;57976;48.174;16.370;2023-07-29T06:34:28;4.20;;;1.40;;
70487;SDS011;57976;48.174;16.370;2023-07-29T06:36:36;4.20;;;1.50;;
70487;SDS011;57976;48.174;16.370;2023-07-29T06:38:41;3.40;;;1.20;;
70487;SDS011;57976;48.174;16.370;2023-07-29T06:40:46;3.60;;;1.10;;
70487;SDS011;57976;48.174;16.370;2023-07-29T06:42:50;3.30;;;1.10;;
70487;SDS011;57976;48.174;16.370;2023-07-29T06:44:56;3.70;;;1.10;;
70487;SDS011;57976;48.174;16.370;2023-07-29T06:47:02;3.30;;;1.00;;
70487;SDS011;57976;48.174;16.370;2023-07-29T06:49:08;3.40;;;0.90;;
70487;SDS011;57976;48.174;16.370;2023-07-29T06:51:13;3.90;;;1.30;;
70487;SDS011;57976;48.174;16.370;2023-07-29T06:53:18;3.60;;;1.30;;
70487;SDS011;57976;48.174;16.370;2023-07-29T06:55:23;4.20;;;1.20;;
70487;SDS011;57976;48.174;16.370;2023-07-29T06:57:28;3.90;;;1.10;;
70487;SDS011;57976;48.174;16.370;2023-07-29T06:59:33;3.40;;;1.10;;
70487;SDS011;57976;48.174;16.370;2023-07-29T07:01:41;3.40;;;1.10;;
70487;SDS011;57976;48.174;16.370;2023-07-29T07:03:46;3.60;;;1.10;;
70487;SDS011;57976;48.174;16.370;2023-07-29T07:05:56;3.70;;;1.20;;
70487;SDS011;57976;48.174;16.370;2023-07-29T07:08:02;3.90;;;1.20;;
70487;SDS011;57976;48.174;16.370;2023-07-29T07:10:09;3.50;;;1.10;;
70487;SDS011;57976;48.174;16.370;2023-07-29T07:12:15;3.40;;;1.00;;
70487;SDS011;57976;48.174;16.370;2023-07-29T07:14:21;4.10;;;1.30;;
70487;SDS011;57976;48.174;16.370;2023-07-29T07:16:25;3.50;;;1.10;;
70487;SDS011;57976;48.174;16.370;2023-07-29T07:18:30;4.70;;;1.20;;
70487;SDS011;57976;48.174;16.370;2023-07-29T07:20:35;4.40;;;1.30;;
70487;SDS011;57976;48.174;16.370;2023-07-29T07:22:40;4.10;;;1.20;;
70487;SDS011;57976;48.174;16.370;2023-07-29T07:24:48;4.20;;;1.20;;
70487;SDS011;57976;48.174;16.370;2023-07-29T07:26:52;3.70;;;1.10;;
70487;SDS011;57976;48.174;16.370;2023-07-29T07:29:00;3.80;;;1.30;;
70487;SDS011;57976;48.174;16.370;2023-07-29T07:31:05;4.10;;;1.30;;
70487;SDS011;57976;48.174;16.370;2023-07-29T07:33:11;3.00;;;1.00;;
70487;SDS011;57976;48.174;16.370;2023-07-29T07:35:17;3.70;;;1.30;;
70487;SDS011;57976;48.174;16.370;2023-07-29T07:37:24;4.20;;;1.20;;
70487;SDS011;57976;48.174;16.370;2023-07-29T07:39:30;4.60;;;1.40;;
70487;SDS011;57976;48.174;16.370;2023-07-29T07:41:35;4.00;;;1.20;;
70487;SDS011;57976;48.174;16.370;2023-07-29T07:43:43;3.50;;;1.30;;
70487;SDS011;57976;48.174;16.370;2023-07-29T07:45:48;3.70;;;1.20;;
70487;SDS011;57976;48.174;16.370;2023-07-29T07:48:00;4.50;;;1.40;;
70487;SDS011;57976;48.174;16.370;2023-07-29T07:50:06;4.60;;;1.20;;
70487;SDS011;57976;48.174;16.370;2023-07-29T07:52:12;3.40;;;1.20;;
70487;SDS011;57976;48.174;16.370;2023-07-29T07:54:16;3.90;;;1.40;;
70487;SDS011;57976;48.174;16.370;2023-07-29T07:56:24;3.30;;;1.10;;
70487;SDS011;57976;48.174;16.370;2023-07-29T07:58:29;3.90;;;1.30;;
70487;SDS011;57976;48.174;16.370;2023-07-29T08:00:36;4.60;;;1.30;;
70487;SDS011;57976;48.174;16.370;2023-07-29T08:02:43;4.80;;;1.10;;
70487;SDS011;57976;48.174;16.370;2023-07-29T08:04:48;3.50;;;1.00;;
70487;SDS011;57976;48.174;16.370;2023-07-29T08:06:54;4.10;;;1.20;;
70487;SDS011;57976;48.174;16.370;2023-07-29T08:08:59;3.30;;;1.00;;
70487;SDS011;57976;48.174;16.370;2023-07-29T08:11:04;3.00;;;1.10;;
70487;SDS011;57976;48.174;16.370;2023-07-29T08:13:11;3.90;;;1.30;;
70487;SDS011;57976;48.174;16.370;2023-07-29T08:15:16;3.40;;;1.20;;
70487;SDS011;57976;48.174;16.370;2023-07-29T08:17:21;3.20;;;1.10;;
70487;SDS011;57976;48.174;16.370;2023-07-29T08:19:29;3.20;;;1.10;;
70487;SDS011;57976;48.174;16.370;2023-07-29T08:21:38;3.30;;;1.00;;
70487;SDS011;57976;48.174;16.370;2023-07-29T08:23:42;3.30;;;1.10;;
70487;SDS011;57976;48.174;16.370;2023-07-29T08:25:51;2.80;;;0.90;;
70487;SDS011;57976;48.174;16.370;2023-07-29T08:27:58;3.40;;;1.20;;
70487;SDS011;57976;48.174;16.370;2023-07-29T08:30:03;3.70;;;1.10;;
70487;SDS011;57976;48.174;16.370;2023-07-29T08:32:12;3.60;;;1.20;;
70487;SDS011;57976;48.174;16.370;2023-07-29T08:34:24;3.50;;;1.10;;
70487;SDS011;57976;48.174;16.370;2023-07-29T08:36:29;3.30;;;1.00;;
70487;SDS011;57976;48.174;16.370;2023-07-29T08:38:34;3.50;;;1.00;;
70487;SDS011;57976;48.174;16.370;2023-07-29T08:40:41;3.30;;;1.10;;
70487;SDS011;57976;48.174;16.370;2023-07-29T08:42:48;3.50;;;0.90;;
70487;SDS011;57976;48.174;16.370;2023-07-29T08:44:53;3.00;;;1.10;;
70487;SDS011;57976;48.174;16.370;2023-07-29T08:47:02;3.30;;;1.10;;
70487;SDS011;57976;48.174;16.370;2023-07-29T08:49:07;4.50;;;1.20;;
70487;SDS011;57976;48.174;16.370;2023-07-29T08:51:14;3.00;;;1.10;;
70487;SDS011;57976;48.174;16.370;2023-07-29T08:53:23;3.00;;;1.00;;
70487;SDS011;57976;48.174;16.370;2023-07-29T08:55:28;3.10;;;0.90;;
70487;SDS011;57976;48.174;16.370;2023-07-29T08:57:33;3.30;;;1.10;;
70487;SDS011;57976;48.174;16.370;2023-07-29T08:59:38;3.90;;;1.10;;
70487;SDS011;57976;48.174;16.370;2023-07-29T09:01:44;3.60;;;1.20;;
70487;SDS011;57976;48.174;16.370;2023-07-29T09:03:49;3.50;;;1.20;;
70487;SDS011;57976;48.174;16.370;2023-07-29T09:05:55;3.70;;;1.40;;
70487;SDS011;57976;48.174;16.370;2023-07-29T09:08:01;4.20;;;1.30;;
70487;SDS011;57976;48.174;16.370;2023-07-29T09:10:08;3.50;;;1.20;;
70487;SDS011;57976;48.174;16.370;2023-07-29T09:12:13;3.70;;;1.30;;
70487;SDS011;57976;48.174;16.370;2023-07-29T09:14:19;3.50;;;1.40;;
70487;SDS011;57976;48.174;16.370;2023-07-29T09:16:24;3.10;;;1.00;;
70487;SDS011;57976;48.174;16.370;2023-07-29T09:18:32;3.70;;;1.20;;
70487;SDS011;57976;48.174;16.370;2023-07-29T09:20:38;3.50;;;1.30;;
70487;SDS011;57976;48.174;16.370;2023-07-29T09:22:45;4.30;;;1.10;;
70487;SDS011;57976;48.174;16.370;2023-07-29T09:24:51;3.40;;;1.20;;
70487;SDS011;57976;48.174;16.370;2023-07-29T09:26:59;4.40;;;1.20;;
70487;SDS011;57976;48.174;16.370;2023-07-29T09:29:06;3.50;;;1.20;;
70487;SDS011;57976;48.174;16.370;2023-07-29T09:31:18;3.60;;;1.20;;
70487;SDS011;57976;48.174;16.370;2023-07-29T09:33:23;3.80;;;1.10;;
70487;SDS011;57976;48.174;16.370;2023-07-29T09:35:31;3.40;;;1.20;;
70487;SDS011;57976;48.174;16.370;2023-07-29T09:37:38;3.20;;;1.20;;
70487;SDS011;57976;48.174;16.370;2023-07-29T09:39:45;3.50;;;1.20;;
70487;SDS011;57976;48.174;16.370;2023-07-29T09:41:50;3.60;;;1.30;;
70487;SDS011;57976;48.174;16.370;2023-07-29T09:43:56;3.60;;;1.30;;
70487;SDS011;57976;48.174;16.370;2023-07-29T09:46:02;3.50;;;1.10;;
70487;SDS011;57976;48.174;16.370;2023-07-29T09:48:08;4.60;;;1.30;;
70487;SDS011;57976;48.174;16.370;2023-07-29T09:50:13;4.40;;;1.50;;
70487;SDS011;57976;48.174;16.370;2023-07-29T09:52:18;3.70;;;1.30;;
70487;SDS011;57976;48.174;16.370;2023-07-29T09:54:31;3.50;;;1.10;;
70487;SDS011;57976;48.174;16.370;2023-07-29T09:56:41;3.10;;;1.00;;
70487;SDS011;57976;48.174;16.370;2023-07-29T09:58:49;2.90;;;1.00;;
70487;SDS011;57976;48.174;16.370;2023-07-29T10:00:54;2.70;;;1.00;;
70487;SDS011;57976;48.174;16.370;2023-07-29T10:03:00;3.90;;;1.20;;
70487;SDS011;57976;48.174;16.370;2023-07-29T10:05:07;3.50;;;1.00;;
70487;SDS011;57976;48.174;16.370;2023-07-29T10:07:15;3.40;;;1.20;;
70487;SDS011;57976;48.174;16.370;2023-07-29T10:09:20;3.30;;;1.10;;
70487;SDS011;57976;48.174;16.370;2023-07-29T10:11:26;2.90;;;1.10;;
70487;SDS011;57976;48.174;16.370;2023-07-29T10:13:31;4.00;;;1.40;;
70487;SDS011;57976;48.174;16.370;2023-07-29T10:15:36;2.80;;;1.00;;
70487;SDS011;57976;48.174;16.370;2023-07-29T10:17:46;3.70;;;1.10;;
70487;SDS011;57976;48.174;16.370;2023-07-29T10:19:53;3.30;;;0.90;;
70487;SDS011;57976;48.174;16.370;2023-07-29T10:21:59;3.50;;;1.10;;
70487;SDS011;57976;48.174;16.370;2023-07-29T10:24:06;4.00;;;1.20;;
70487;SDS011;57976;48.174;16.370;2023-07-29T10:26:17;2.40;;;1.00;;
70487;SDS011;57976;48.174;16.370;2023-07-29T10:28:27;3.20;;;1.00;;
70487;SDS011;57976;48.174;16.370;2023-07-29T10:30:37;4.80;;;1.40;;
70487;SDS011;57976;48.174;16.370;2023-07-29T10:32:43;2.80;;;0.80;;
70487;SDS011;57976;48.174;16.370;2023-07-29T10:34:52;2.70;;;0.90;;
70487;SDS011;57976;48.174;16.370;2023-07-29T10:37:00;3.00;;;1.00;;
70487;SDS011;57976;48.174;16.370;2023-07-29T10:39:07;3.40;;;1.20;;
70487;SDS011;57976;48.174;16.370;2023-07-29T10:41:12;3.40;;;0.90;;
70487;SDS011;57976;48.174;16.370;2023-07-29T10:43:23;3.00;;;1.10;;
70487;SDS011;57976;48.174;16.370;2023-07-29T10:45:36;3.50;;;1.20;;
70487;SDS011;57976;48.174;16.370;2023-07-29T10:47:42;3.60;;;1.10;;
70487;SDS011;57976;48.174;16.370;2023-07-29T10:49:48;2.60;;;0.90;;
70487;SDS011;57976;48.174;16.370;2023-07-29T10:51:56;3.10;;;1.10;;
70487;SDS011;57976;48.174;16.370;2023-07-29T10:54:01;2.70;;;0.90;;
70487;SDS011;57976;48.174;16.370;2023-07-29T10:56:14;3.00;;;1.00;;
70487;SDS011;57976;48.174;16.370;2023-07-29T10:58:29;2.70;;;0.80;;
70487;SDS011;57976;48.174;16.370;2023-07-29T11:00:34;2.80;;;0.90;;
70487;SDS011;57976;48.174;16.370;2023-07-29T11:02:39;2.60;;;1.00;;
70487;SDS011;57976;48.174;16.370;2023-07-29T11:04:47;3.40;;;0.90;;
70487;SDS011;57976;48.174;16.370;2023-07-29T11:07:03;2.40;;;0.80;;
70487;SDS011;57976;48.174;16.370;2023-07-29T11:09:41;3.00;;;1.10;;
70487;SDS011;57976;48.174;16.370;2023-07-29T11:11:59;3.10;;;1.00;;
70487;SDS011;57976;48.174;16.370;2023-07-29T11:14:30;3.20;;;1.20;;
70487;SDS011;57976;48.174;16.370;2023-07-29T11:16:34;3.20;;;1.00;;
70487;SDS011;57976;48.174;16.370;2023-07-29T11:18:43;3.30;;;1.00;;
70487;SDS011;57976;48.174;16.370;2023-07-29T11:20:49;2.80;;;1.00;;
70487;SDS011;57976;48.174;16.370;2023-07-29T11:22:57;3.50;;;1.10;;
70487;SDS011;57976;48.174;16.370;2023-07-29T11:25:02;4.80;;;1.50;;
70487;SDS011;57976;48.174;16.370;2023-07-29T11:27:12;4.00;;;1.50;;
70487;SDS011;57976;48.174;16.370;2023-07-29T11:29:17;3.80;;;1.50;;
70487;SDS011;57976;48.174;16.370;2023-07-29T11:31:22;4.10;;;1.50;;
70487;SDS011;57976;48.174;16.370;2023-07-29T11:33:41;4.10;;;1.60;;
70487;SDS011;57976;48.174;16.370;2023-07-29T11:35:46;4.30;;;1.80;;
70487;SDS011;57976;48.174;16.370;2023-07-29T11:37:52;4.10;;;1.70;;
70487;SDS011;57976;48.174;16.370;2023-07-29T11:39:57;4.70;;;1.70;;
70487;SDS011;57976;48.174;16.370;2023-07-29T11:42:06;4.30;;;1.70;;
70487;SDS011;57976;48.174;16.370;2023-07-29T11:44:17;4.40;;;1.90;;
70487;SDS011;57976;48.174;16.370;2023-07-29T11:46:23;3.90;;;1.50;;
70487;SDS011;57976;48.174;16.370;2023-07-29T11:48:31;5.10;;;1.70;;
70487;SDS011;57976;48.174;16.370;2023-07-29T11:50:36;4.20;;;1.80;;
70487;SDS011;57976;48.174;16.370;2023-07-29T11:52:45;4.50;;;1.70;;
70487;SDS011;57976;48.174;16.370;2023-07-29T11:54:51;4.70;;;1.60;;
70487;SDS011;57976;48.174;16.370;2023-07-29T11:56:57;4.10;;;1.80;;
70487;SDS011;57976;48.174;16.370;2023-07-29T11:59:03;3.90;;;1.70;;
70487;SDS011;57976;48.174;16.370;2023-07-29T12:01:08;4.40;;;1.90;;
70487;SDS011;57976;48.174;16.370;2023-07-29T12:03:14;4.80;;;2.00;;
70487;SDS011;57976;48.174;16.370;2023-07-29T12:05:21;5.00;;;1.90;;
70487;SDS011;57976;48.174;16.370;2023-07-29T12:07:27;4.40;;;1.80;;
70487;SDS011;57976;48.174;16.370;2023-07-29T12:09:32;4.00;;;1.60;;
70487;SDS011;57976;48.174;16.370;2023-07-29T12:11:39;4.40;;;1.70;;
70487;SDS011;57976;48.174;16.370;2023-07-29T12:13:44;4.40;;;1.90;;
70487;SDS011;57976;48.174;16.370;2023-07-29T12:15:50;4.60;;;1.60;;
70487;SDS011;57976;48.174;16.370;2023-07-29T12:17:56;3.50;;;1.30;;
70487;SDS011;57976;48.174;16.370;2023-07-29T12:20:02;3.30;;;1.30;;
70487;SDS011;57976;48.174;16.370;2023-07-29T12:22:10;3.80;;;1.40;;
70487;SDS011;57976;48.174;16.370;2023-07-29T12:24:21;3.10;;;1.20;;
70487;SDS011;57976;48.174;16.370;2023-07-29T12:26:28;4.00;;;1.70;;
70487;SDS011;57976;48.174;16.370;2023-07-29T12:28:33;4.80;;;2.00;;
70487;SDS011;57976;48.174;16.370;2023-07-29T12:30:42;5.20;;;2.10;;
70487;SDS011;57976;48.174;16.370;2023-07-29T12:32:47;5.00;;;1.90;;